sensor_id;sensor_type;location;lat;lon;timestamp;P1;durP1;ratioP1;P2;durP2;ratioP2
57401;SDS011;43226;51.110;6.998;2022-12-29T00:01:12;1.73;;;1.50;;
57401;SDS011;43226;51.110;6.998;2022-12-29T00:03:37;2.73;;;1.47;;
57401;SDS011;43226;51.110;6.998;2022-12-29T00:06:03;3.37;;;1.30;;
57401;SDS011;43226;51.110;6.998;2022-12-29T00:08:28;1.83;;;1.63;;
57401;SDS011;43226;51.110;6.998;2022-12-29T00:11:05;1.50;;;1.40;;
57401;SDS011;43226;51.110;6.998;2022-12-29T00:13:30;1.70;;;1.60;;
57401;SDS011;43226;51.110;6.998;2022-12-29T00:16:14;1.47;;;1.33;;
57401;SDS011;43226;51.110;6.998;2022-12-29T00:18:39;2.00;;;1.37;;
57401;SDS011;43226;51.110;6.998;2022-12-29T00:21:04;1.73;;;1.40;;
57401;SDS011;43226;51.110;6.998;2022-12-29T00:23:50;1.40;;;1.30;;
57401;SDS011;43226;51.110;6.998;2022-12-29T00:26:41;1.80;;;1.60;;
57401;SDS011;43226;51.110;6.998;2022-12-29T00:29:25;1.80;;;1.40;;
57401;SDS011;43226;51.110;6.998;2022-12-29T00:32:09;1.70;;;1.60;;
57401;SDS011;43226;51.110;6.998;2022-12-29T00:34:53;1.23;;;1.13;;
57401;SDS011;43226;51.110;6.998;2022-12-29T00:37:37;1.40;;;1.30;;
57401;SDS011;43226;51.110;6.998;2022-12-29T00:40:22;1.20;;;1.10;;
57401;SDS011;43226;51.110;6.998;2022-12-29T00:43:06;1.20;;;1.10;;
57401;SDS011;43226;51.110;6.998;2022-12-29T00:45:50;1.10;;;1.10;;
57401;SDS011;43226;51.110;6.998;2022-12-29T00:48:15;1.90;;;1.40;;
57401;SDS011;43226;51.110;6.998;2022-12-29T00:51:00;1.03;;;1.00;;
57401;SDS011;43226;51.110;6.998;2022-12-29T00:53:25;2.00;;;1.13;;
57401;SDS011;43226;51.110;6.998;2022-12-29T00:55:50;1.52;;;1.20;;
57401;SDS011;43226;51.110;6.998;2022-12-29T00:58:15;1.30;;;1.20;;
57401;SDS011;43226;51.110;6.998;2022-12-29T01:00:41;1.80;;;1.37;;
57401;SDS011;43226;51.110;6.998;2022-12-29T01:03:06;1.30;;;1.10;;
57401;SDS011;43226;51.110;6.998;2022-12-29T01:05:31;1.20;;;1.07;;
57401;SDS011;43226;51.110;6.998;2022-12-29T01:07:56;1.50;;;1.40;;
57401;SDS011;43226;51.110;6.998;2022-12-29T01:10:21;0.90;;;0.90;;
57401;SDS011;43226;51.110;6.998;2022-12-29T01:12:46;0.80;;;0.80;;
57401;SDS011;43226;51.110;6.998;2022-12-29T01:15:13;1.30;;;1.20;;
57401;SDS011;43226;51.110;6.998;2022-12-29T01:17:38;0.80;;;0.80;;
57401;SDS011;43226;51.110;6.998;2022-12-29T01:20:04;0.90;;;0.90;;
57401;SDS011;43226;51.110;6.998;2022-12-29T01:22:29;1.20;;;1.10;;
57401;SDS011;43226;51.110;6.998;2022-12-29T01:24:54;2.03;;;1.10;;
57401;SDS011;43226;51.110;6.998;2022-12-29T01:27:20;2.23;;;1.20;;
57401;SDS011;43226;51.110;6.998;2022-12-29T01:29:45;1.20;;;1.10;;
57401;SDS011;43226;51.110;6.998;2022-12-29T01:32:10;1.07;;;0.97;;
57401;SDS011;43226;51.110;6.998;2022-12-29T01:34:35;1.20;;;1.10;;
57401;SDS011;43226;51.110;6.998;2022-12-29T01:37:00;1.20;;;1.10;;
57401;SDS011;43226;51.110;6.998;2022-12-29T01:39:26;1.57;;;1.37;;
57401;SDS011;43226;51.110;6.998;2022-12-29T01:41:51;1.30;;;1.20;;
57401;SDS011;43226;51.110;6.998;2022-12-29T01:47:00;0.83;;;0.83;;
57401;SDS011;43226;51.110;6.998;2022-12-29T01:49:26;1.00;;;0.70;;
57401;SDS011;43226;51.110;6.998;2022-12-29T01:51:58;0.80;;;0.80;;
57401;SDS011;43226;51.110;6.998;2022-12-29T01:54:25;0.77;;;0.70;;
57401;SDS011;43226;51.110;6.998;2022-12-29T01:56:52;0.80;;;0.80;;
57401;SDS011;43226;51.110;6.998;2022-12-29T01:59:19;0.70;;;0.70;;
57401;SDS011;43226;51.110;6.998;2022-12-29T02:01:45;1.63;;;0.70;;
57401;SDS011;43226;51.110;6.998;2022-12-29T02:04:11;0.80;;;0.80;;
57401;SDS011;43226;51.110;6.998;2022-12-29T02:06:39;0.70;;;0.70;;
57401;SDS011;43226;51.110;6.998;2022-12-29T02:09:06;1.93;;;0.97;;
57401;SDS011;43226;51.110;6.998;2022-12-29T02:11:32;0.60;;;0.60;;
57401;SDS011;43226;51.110;6.998;2022-12-29T02:13:57;0.60;;;0.60;;
57401;SDS011;43226;51.110;6.998;2022-12-29T02:21:44;0.80;;;0.70;;
57401;SDS011;43226;51.110;6.998;2022-12-29T02:32:38;1.27;;;0.63;;
57401;SDS011;43226;51.110;6.998;2022-12-29T02:35:08;0.90;;;0.90;;
57401;SDS011;43226;51.110;6.998;2022-12-29T02:37:40;0.73;;;0.73;;
57401;SDS011;43226;51.110;6.998;2022-12-29T02:40:17;1.03;;;0.93;;
57401;SDS011;43226;51.110;6.998;2022-12-29T02:45:22;0.80;;;0.70;;
57401;SDS011;43226;51.110;6.998;2022-12-29T02:48:04;1.03;;;0.77;;
57401;SDS011;43226;51.110;6.998;2022-12-29T02:50:35;1.17;;;0.70;;
57401;SDS011;43226;51.110;6.998;2022-12-29T02:53:04;0.70;;;0.70;;
57401;SDS011;43226;51.110;6.998;2022-12-29T02:55:30;0.73;;;0.70;;
57401;SDS011;43226;51.110;6.998;2022-12-29T03:00:41;2.17;;;0.77;;
57401;SDS011;43226;51.110;6.998;2022-12-29T03:03:21;1.93;;;0.93;;
57401;SDS011;43226;51.110;6.998;2022-12-29T03:08:36;0.67;;;0.67;;
57401;SDS011;43226;51.110;6.998;2022-12-29T03:11:08;1.77;;;1.00;;
57401;SDS011;43226;51.110;6.998;2022-12-29T03:13:59;1.50;;;0.97;;
57401;SDS011;43226;51.110;6.998;2022-12-29T03:19:38;0.80;;;0.80;;
57401;SDS011;43226;51.110;6.998;2022-12-29T03:22:10;2.67;;;1.03;;
57401;SDS011;43226;51.110;6.998;2022-12-29T03:24:53;1.33;;;1.23;;
57401;SDS011;43226;51.110;6.998;2022-12-29T03:27:21;2.40;;;0.83;;
57401;SDS011;43226;51.110;6.998;2022-12-29T03:29:48;1.03;;;0.70;;
57401;SDS011;43226;51.110;6.998;2022-12-29T03:32:18;0.70;;;0.70;;
57401;SDS011;43226;51.110;6.998;2022-12-29T03:34:43;1.30;;;1.07;;
57401;SDS011;43226;51.110;6.998;2022-12-29T03:37:10;1.23;;;0.90;;
57401;SDS011;43226;51.110;6.998;2022-12-29T03:39:36;0.67;;;0.60;;
57401;SDS011;43226;51.110;6.998;2022-12-29T03:42:02;0.80;;;0.80;;
57401;SDS011;43226;51.110;6.998;2022-12-29T03:44:36;0.90;;;0.90;;
57401;SDS011;43226;51.110;6.998;2022-12-29T03:47:01;1.67;;;0.70;;
57401;SDS011;43226;51.110;6.998;2022-12-29T03:49:27;0.70;;;0.70;;
57401;SDS011;43226;51.110;6.998;2022-12-29T03:51:52;0.70;;;0.70;;
57401;SDS011;43226;51.110;6.998;2022-12-29T03:54:17;1.80;;;0.80;;
57401;SDS011;43226;51.110;6.998;2022-12-29T03:56:42;1.43;;;0.77;;
57401;SDS011;43226;51.110;6.998;2022-12-29T03:59:07;0.70;;;0.60;;
57401;SDS011;43226;51.110;6.998;2022-12-29T04:01:33;0.87;;;0.87;;
57401;SDS011;43226;51.110;6.998;2022-12-29T04:03:59;1.00;;;0.80;;
57401;SDS011;43226;51.110;6.998;2022-12-29T04:06:24;3.77;;;0.70;;
57401;SDS011;43226;51.110;6.998;2022-12-29T04:08:49;0.80;;;0.70;;
57401;SDS011;43226;51.110;6.998;2022-12-29T04:11:14;1.10;;;0.90;;
57401;SDS011;43226;51.110;6.998;2022-12-29T04:13:39;1.43;;;0.80;;
57401;SDS011;43226;51.110;6.998;2022-12-29T04:16:05;1.10;;;0.70;;
57401;SDS011;43226;51.110;6.998;2022-12-29T04:18:31;1.73;;;0.80;;
57401;SDS011;43226;51.110;6.998;2022-12-29T04:20:56;1.10;;;0.80;;
57401;SDS011;43226;51.110;6.998;2022-12-29T04:23:24;1.00;;;0.67;;
57401;SDS011;43226;51.110;6.998;2022-12-29T04:25:49;0.60;;;0.60;;
57401;SDS011;43226;51.110;6.998;2022-12-29T04:28:15;0.80;;;0.80;;
57401;SDS011;43226;51.110;6.998;2022-12-29T04:30:41;2.10;;;0.90;;
57401;SDS011;43226;51.110;6.998;2022-12-29T04:33:06;0.80;;;0.80;;
57401;SDS011;43226;51.110;6.998;2022-12-29T04:35:32;1.50;;;0.87;;
57401;SDS011;43226;51.110;6.998;2022-12-29T04:37:57;2.60;;;0.80;;
57401;SDS011;43226;51.110;6.998;2022-12-29T04:40:22;2.23;;;1.20;;
57401;SDS011;43226;51.110;6.998;2022-12-29T04:42:48;1.30;;;0.83;;
57401;SDS011;43226;51.110;6.998;2022-12-29T04:45:13;1.83;;;0.80;;
57401;SDS011;43226;51.110;6.998;2022-12-29T04:47:38;0.70;;;0.70;;
57401;SDS011;43226;51.110;6.998;2022-12-29T04:50:04;1.17;;;0.90;;
57401;SDS011;43226;51.110;6.998;2022-12-29T04:52:29;0.90;;;0.73;;
57401;SDS011;43226;51.110;6.998;2022-12-29T04:54:54;2.33;;;1.27;;
57401;SDS011;43226;51.110;6.998;2022-12-29T04:57:19;1.40;;;0.80;;
57401;SDS011;43226;51.110;6.998;2022-12-29T04:59:44;0.80;;;0.80;;
57401;SDS011;43226;51.110;6.998;2022-12-29T05:02:10;0.80;;;0.80;;
57401;SDS011;43226;51.110;6.998;2022-12-29T05:04:35;1.00;;;0.73;;
57401;SDS011;43226;51.110;6.998;2022-12-29T05:07:00;0.80;;;0.80;;
57401;SDS011;43226;51.110;6.998;2022-12-29T05:09:25;2.20;;;0.80;;
57401;SDS011;43226;51.110;6.998;2022-12-29T05:11:51;0.73;;;0.73;;
57401;SDS011;43226;51.110;6.998;2022-12-29T05:14:16;0.77;;;0.77;;
57401;SDS011;43226;51.110;6.998;2022-12-29T05:16:41;1.20;;;0.90;;
57401;SDS011;43226;51.110;6.998;2022-12-29T05:19:06;0.80;;;0.73;;
57401;SDS011;43226;51.110;6.998;2022-12-29T05:21:32;1.57;;;0.87;;
57401;SDS011;43226;51.110;6.998;2022-12-29T05:23:57;0.70;;;0.70;;
57401;SDS011;43226;51.110;6.998;2022-12-29T05:26:22;1.23;;;0.90;;
57401;SDS011;43226;51.110;6.998;2022-12-29T05:28:47;1.70;;;0.93;;
57401;SDS011;43226;51.110;6.998;2022-12-29T05:31:12;1.00;;;0.90;;
57401;SDS011;43226;51.110;6.998;2022-12-29T05:33:37;1.37;;;0.80;;
57401;SDS011;43226;51.110;6.998;2022-12-29T05:36:04;2.20;;;0.83;;
57401;SDS011;43226;51.110;6.998;2022-12-29T05:38:29;1.83;;;1.10;;
57401;SDS011;43226;51.110;6.998;2022-12-29T05:40:54;0.80;;;0.80;;
57401;SDS011;43226;51.110;6.998;2022-12-29T05:43:19;1.13;;;0.80;;
57401;SDS011;43226;51.110;6.998;2022-12-29T05:45:44;2.87;;;0.80;;
57401;SDS011;43226;51.110;6.998;2022-12-29T05:48:12;3.00;;;0.70;;
57401;SDS011;43226;51.110;6.998;2022-12-29T05:50:38;5.57;;;0.80;;
57401;SDS011;43226;51.110;6.998;2022-12-29T05:53:03;1.07;;;0.70;;
57401;SDS011;43226;51.110;6.998;2022-12-29T05:55:28;0.90;;;0.60;;
57401;SDS011;43226;51.110;6.998;2022-12-29T05:57:53;2.00;;;0.77;;
57401;SDS011;43226;51.110;6.998;2022-12-29T06:00:18;1.00;;;0.90;;
57401;SDS011;43226;51.110;6.998;2022-12-29T06:02:43;1.53;;;0.80;;
57401;SDS011;43226;51.110;6.998;2022-12-29T06:05:09;0.70;;;0.67;;
57401;SDS011;43226;51.110;6.998;2022-12-29T06:07:34;2.40;;;0.70;;
57401;SDS011;43226;51.110;6.998;2022-12-29T06:09:59;1.57;;;0.70;;
57401;SDS011;43226;51.110;6.998;2022-12-29T06:12:24;2.63;;;1.20;;
57401;SDS011;43226;51.110;6.998;2022-12-29T06:14:49;1.87;;;1.23;;
57401;SDS011;43226;51.110;6.998;2022-12-29T06:17:15;1.47;;;1.00;;
57401;SDS011;43226;51.110;6.998;2022-12-29T06:19:40;0.73;;;0.73;;
57401;SDS011;43226;51.110;6.998;2022-12-29T06:22:05;0.70;;;0.70;;
57401;SDS011;43226;51.110;6.998;2022-12-29T06:24:32;0.70;;;0.70;;
57401;SDS011;43226;51.110;6.998;2022-12-29T06:26:57;4.40;;;0.70;;
57401;SDS011;43226;51.110;6.998;2022-12-29T06:29:22;2.20;;;0.90;;
57401;SDS011;43226;51.110;6.998;2022-12-29T06:31:48;1.20;;;0.80;;
57401;SDS011;43226;51.110;6.998;2022-12-29T06:34:15;1.43;;;0.70;;
57401;SDS011;43226;51.110;6.998;2022-12-29T06:36:41;4.67;;;0.80;;
57401;SDS011;43226;51.110;6.998;2022-12-29T06:39:06;0.83;;;0.73;;
57401;SDS011;43226;51.110;6.998;2022-12-29T06:41:31;0.93;;;0.70;;
57401;SDS011;43226;51.110;6.998;2022-12-29T06:43:56;0.73;;;0.70;;
57401;SDS011;43226;51.110;6.998;2022-12-29T06:46:22;1.30;;;0.70;;
57401;SDS011;43226;51.110;6.998;2022-12-29T06:48:47;1.33;;;1.10;;
57401;SDS011;43226;51.110;6.998;2022-12-29T06:51:12;2.47;;;1.00;;
57401;SDS011;43226;51.110;6.998;2022-12-29T06:53:37;1.53;;;0.80;;
57401;SDS011;43226;51.110;6.998;2022-12-29T06:56:02;1.93;;;0.90;;
57401;SDS011;43226;51.110;6.998;2022-12-29T06:58:28;1.33;;;0.80;;
57401;SDS011;43226;51.110;6.998;2022-12-29T07:00:53;2.77;;;0.90;;
57401;SDS011;43226;51.110;6.998;2022-12-29T07:03:18;1.60;;;0.80;;
57401;SDS011;43226;51.110;6.998;2022-12-29T07:05:43;1.47;;;0.60;;
57401;SDS011;43226;51.110;6.998;2022-12-29T07:08:09;1.53;;;0.90;;
57401;SDS011;43226;51.110;6.998;2022-12-29T07:10:34;2.73;;;0.80;;
57401;SDS011;43226;51.110;6.998;2022-12-29T07:12:59;1.10;;;0.67;;
57401;SDS011;43226;51.110;6.998;2022-12-29T07:15:25;1.47;;;0.80;;
57401;SDS011;43226;51.110;6.998;2022-12-29T07:17:50;1.93;;;0.80;;
57401;SDS011;43226;51.110;6.998;2022-12-29T07:20:15;2.00;;;0.83;;
57401;SDS011;43226;51.110;6.998;2022-12-29T07:22:41;0.80;;;0.60;;
57401;SDS011;43226;51.110;6.998;2022-12-29T07:25:06;1.57;;;0.80;;
57401;SDS011;43226;51.110;6.998;2022-12-29T07:27:31;0.83;;;0.80;;
57401;SDS011;43226;51.110;6.998;2022-12-29T07:29:57;1.27;;;0.90;;
57401;SDS011;43226;51.110;6.998;2022-12-29T07:32:22;1.83;;;0.80;;
57401;SDS011;43226;51.110;6.998;2022-12-29T07:34:47;0.80;;;0.70;;
57401;SDS011;43226;51.110;6.998;2022-12-29T07:37:12;1.03;;;0.80;;
57401;SDS011;43226;51.110;6.998;2022-12-29T07:39:39;2.50;;;0.73;;
57401;SDS011;43226;51.110;6.998;2022-12-29T07:42:04;2.17;;;0.87;;
57401;SDS011;43226;51.110;6.998;2022-12-29T07:44:29;1.80;;;0.93;;
57401;SDS011;43226;51.110;6.998;2022-12-29T07:46:54;1.30;;;0.53;;
57401;SDS011;43226;51.110;6.998;2022-12-29T07:49:19;2.77;;;0.80;;
57401;SDS011;43226;51.110;6.998;2022-12-29T07:51:44;1.00;;;0.90;;
57401;SDS011;43226;51.110;6.998;2022-12-29T07:54:10;3.57;;;1.10;;
57401;SDS011;43226;51.110;6.998;2022-12-29T07:56:36;1.10;;;0.60;;
57401;SDS011;43226;51.110;6.998;2022-12-29T07:59:02;2.23;;;0.87;;
57401;SDS011;43226;51.110;6.998;2022-12-29T08:01:27;2.00;;;0.70;;
57401;SDS011;43226;51.110;6.998;2022-12-29T08:03:52;2.80;;;1.00;;
57401;SDS011;43226;51.110;6.998;2022-12-29T08:06:17;2.10;;;0.90;;
57401;SDS011;43226;51.110;6.998;2022-12-29T08:08:43;1.20;;;0.93;;
57401;SDS011;43226;51.110;6.998;2022-12-29T08:11:08;1.33;;;0.90;;
57401;SDS011;43226;51.110;6.998;2022-12-29T08:13:33;5.73;;;1.10;;
57401;SDS011;43226;51.110;6.998;2022-12-29T08:15:58;1.63;;;0.93;;
57401;SDS011;43226;51.110;6.998;2022-12-29T08:18:24;2.90;;;1.07;;
57401;SDS011;43226;51.110;6.998;2022-12-29T08:20:49;2.90;;;0.90;;
57401;SDS011;43226;51.110;6.998;2022-12-29T08:23:14;2.30;;;0.80;;
57401;SDS011;43226;51.110;6.998;2022-12-29T08:25:39;2.67;;;1.00;;
57401;SDS011;43226;51.110;6.998;2022-12-29T08:28:04;2.77;;;1.07;;
57401;SDS011;43226;51.110;6.998;2022-12-29T08:30:30;0.80;;;0.80;;
57401;SDS011;43226;51.110;6.998;2022-12-29T08:32:55;3.63;;;0.90;;
57401;SDS011;43226;51.110;6.998;2022-12-29T08:35:20;5.63;;;1.13;;
57401;SDS011;43226;51.110;6.998;2022-12-29T08:37:45;1.50;;;1.10;;
57401;SDS011;43226;51.110;6.998;2022-12-29T08:40:10;1.57;;;0.90;;
57401;SDS011;43226;51.110;6.998;2022-12-29T08:42:35;2.40;;;1.00;;
57401;SDS011;43226;51.110;6.998;2022-12-29T08:45:01;2.33;;;0.93;;
57401;SDS011;43226;51.110;6.998;2022-12-29T08:47:26;5.47;;;0.90;;
57401;SDS011;43226;51.110;6.998;2022-12-29T08:49:52;3.27;;;1.53;;
57401;SDS011;43226;51.110;6.998;2022-12-29T08:52:17;2.03;;;0.93;;
57401;SDS011;43226;51.110;6.998;2022-12-29T08:54:42;5.17;;;1.00;;
57401;SDS011;43226;51.110;6.998;2022-12-29T08:57:07;4.80;;;1.00;;
57401;SDS011;43226;51.110;6.998;2022-12-29T08:59:32;2.93;;;1.00;;
57401;SDS011;43226;51.110;6.998;2022-12-29T09:01:58;7.03;;;1.40;;
57401;SDS011;43226;51.110;6.998;2022-12-29T09:04:23;2.77;;;1.00;;
57401;SDS011;43226;51.110;6.998;2022-12-29T09:06:48;5.67;;;1.03;;
57401;SDS011;43226;51.110;6.998;2022-12-29T09:09:13;3.10;;;1.00;;
57401;SDS011;43226;51.110;6.998;2022-12-29T09:11:39;4.23;;;0.97;;
57401;SDS011;43226;51.110;6.998;2022-12-29T09:14:04;10.07;;;1.20;;
57401;SDS011;43226;51.110;6.998;2022-12-29T09:16:29;4.13;;;1.10;;
57401;SDS011;43226;51.110;6.998;2022-12-29T09:18:55;1.90;;;1.07;;
57401;SDS011;43226;51.110;6.998;2022-12-29T09:21:20;3.10;;;0.90;;
57401;SDS011;43226;51.110;6.998;2022-12-29T09:23:45;4.47;;;1.57;;
57401;SDS011;43226;51.110;6.998;2022-12-29T09:26:10;11.63;;;1.27;;
57401;SDS011;43226;51.110;6.998;2022-12-29T09:28:36;3.13;;;0.93;;
57401;SDS011;43226;51.110;6.998;2022-12-29T09:31:01;7.83;;;0.87;;
57401;SDS011;43226;51.110;6.998;2022-12-29T09:33:27;4.20;;;1.30;;
57401;SDS011;43226;51.110;6.998;2022-12-29T09:35:56;2.70;;;1.10;;
57401;SDS011;43226;51.110;6.998;2022-12-29T09:38:22;1.73;;;1.07;;
57401;SDS011;43226;51.110;6.998;2022-12-29T09:40:49;2.73;;;1.03;;
57401;SDS011;43226;51.110;6.998;2022-12-29T09:43:28;4.20;;;1.10;;
57401;SDS011;43226;51.110;6.998;2022-12-29T09:46:06;4.70;;;1.30;;
57401;SDS011;43226;51.110;6.998;2022-12-29T09:48:34;2.77;;;0.90;;
57401;SDS011;43226;51.110;6.998;2022-12-29T09:51:03;1.03;;;0.93;;
57401;SDS011;43226;51.110;6.998;2022-12-29T09:53:31;3.50;;;1.10;;
57401;SDS011;43226;51.110;6.998;2022-12-29T09:56:00;5.70;;;1.40;;
57401;SDS011;43226;51.110;6.998;2022-12-29T09:58:28;3.00;;;0.80;;
57401;SDS011;43226;51.110;6.998;2022-12-29T10:01:00;3.43;;;1.17;;
57401;SDS011;43226;51.110;6.998;2022-12-29T10:03:28;2.20;;;1.10;;
57401;SDS011;43226;51.110;6.998;2022-12-29T10:08:36;4.95;;;1.20;;
57401;SDS011;43226;51.110;6.998;2022-12-29T10:16:09;3.20;;;1.40;;
57401;SDS011;43226;51.110;6.998;2022-12-29T10:18:53;2.27;;;1.40;;
57401;SDS011;43226;51.110;6.998;2022-12-29T10:24:07;2.37;;;1.30;;
57401;SDS011;43226;51.110;6.998;2022-12-29T10:26:41;3.33;;;1.30;;
57401;SDS011;43226;51.110;6.998;2022-12-29T10:29:14;5.43;;;1.83;;
57401;SDS011;43226;51.110;6.998;2022-12-29T10:31:43;8.13;;;1.87;;
57401;SDS011;43226;51.110;6.998;2022-12-29T10:34:21;5.73;;;1.60;;
57401;SDS011;43226;51.110;6.998;2022-12-29T10:36:49;2.30;;;1.23;;
57401;SDS011;43226;51.110;6.998;2022-12-29T10:39:21;6.27;;;1.80;;
57401;SDS011;43226;51.110;6.998;2022-12-29T10:41:49;7.13;;;1.80;;
57401;SDS011;43226;51.110;6.998;2022-12-29T10:44:15;6.43;;;1.30;;
57401;SDS011;43226;51.110;6.998;2022-12-29T10:46:41;7.00;;;2.10;;
57401;SDS011;43226;51.110;6.998;2022-12-29T10:49:12;22.63;;;1.43;;
57401;SDS011;43226;51.110;6.998;2022-12-29T10:51:41;9.30;;;1.57;;
57401;SDS011;43226;51.110;6.998;2022-12-29T10:54:21;6.63;;;1.20;;
57401;SDS011;43226;51.110;6.998;2022-12-29T10:56:52;6.43;;;1.93;;
57401;SDS011;43226;51.110;6.998;2022-12-29T10:59:23;1.97;;;0.90;;
57401;SDS011;43226;51.110;6.998;2022-12-29T11:01:55;3.93;;;1.20;;
57401;SDS011;43226;51.110;6.998;2022-12-29T11:04:28;4.77;;;1.13;;
57401;SDS011;43226;51.110;6.998;2022-12-29T11:06:55;3.73;;;1.33;;
57401;SDS011;43226;51.110;6.998;2022-12-29T11:09:24;7.83;;;1.47;;
57401;SDS011;43226;51.110;6.998;2022-12-29T11:11:50;6.60;;;1.30;;
57401;SDS011;43226;51.110;6.998;2022-12-29T11:14:19;3.83;;;1.20;;
57401;SDS011;43226;51.110;6.998;2022-12-29T11:16:44;4.90;;;1.37;;
57401;SDS011;43226;51.110;6.998;2022-12-29T11:19:21;4.87;;;1.30;;
57401;SDS011;43226;51.110;6.998;2022-12-29T11:21:47;3.33;;;1.40;;
57401;SDS011;43226;51.110;6.998;2022-12-29T11:26:44;5.03;;;1.50;;
57401;SDS011;43226;51.110;6.998;2022-12-29T11:31:41;3.93;;;1.30;;
57401;SDS011;43226;51.110;6.998;2022-12-29T11:34:07;5.47;;;1.50;;
57401;SDS011;43226;51.110;6.998;2022-12-29T11:36:32;5.93;;;1.37;;
57401;SDS011;43226;51.110;6.998;2022-12-29T11:38:58;11.10;;;1.23;;
57401;SDS011;43226;51.110;6.998;2022-12-29T11:41:30;5.50;;;2.00;;
57401;SDS011;43226;51.110;6.998;2022-12-29T11:43:57;3.73;;;1.00;;
57401;SDS011;43226;51.110;6.998;2022-12-29T11:46:25;8.30;;;1.47;;
57401;SDS011;43226;51.110;6.998;2022-12-29T11:48:51;4.27;;;1.30;;
57401;SDS011;43226;51.110;6.998;2022-12-29T11:51:21;5.10;;;1.37;;
57401;SDS011;43226;51.110;6.998;2022-12-29T11:53:47;3.63;;;1.20;;
57401;SDS011;43226;51.110;6.998;2022-12-29T11:56:14;5.03;;;1.20;;
57401;SDS011;43226;51.110;6.998;2022-12-29T11:58:40;5.83;;;1.30;;
57401;SDS011;43226;51.110;6.998;2022-12-29T12:01:07;5.70;;;1.50;;
57401;SDS011;43226;51.110;6.998;2022-12-29T12:03:35;5.60;;;1.43;;
57401;SDS011;43226;51.110;6.998;2022-12-29T12:06:02;4.70;;;1.70;;
57401;SDS011;43226;51.110;6.998;2022-12-29T12:08:35;11.33;;;1.43;;
57401;SDS011;43226;51.110;6.998;2022-12-29T12:11:10;6.07;;;1.50;;
57401;SDS011;43226;51.110;6.998;2022-12-29T12:13:44;2.57;;;1.50;;
57401;SDS011;43226;51.110;6.998;2022-12-29T12:16:17;9.07;;;1.87;;
57401;SDS011;43226;51.110;6.998;2022-12-29T12:21:10;6.63;;;1.50;;
57401;SDS011;43226;51.110;6.998;2022-12-29T12:31:14;4.97;;;1.57;;
57401;SDS011;43226;51.110;6.998;2022-12-29T12:33:41;5.40;;;1.33;;
57401;SDS011;43226;51.110;6.998;2022-12-29T12:39:06;6.63;;;1.83;;
57401;SDS011;43226;51.110;6.998;2022-12-29T12:41:51;5.30;;;1.23;;
57401;SDS011;43226;51.110;6.998;2022-12-29T12:44:19;4.07;;;1.70;;
57401;SDS011;43226;51.110;6.998;2022-12-29T12:59:50;6.53;;;3.13;;
57401;SDS011;43226;51.110;6.998;2022-12-29T13:02:27;9.90;;;2.10;;
57401;SDS011;43226;51.110;6.998;2022-12-29T13:05:07;8.40;;;3.30;;
57401;SDS011;43226;51.110;6.998;2022-12-29T13:12:34;3.53;;;1.63;;
57401;SDS011;43226;51.110;6.998;2022-12-29T13:17:45;6.47;;;2.07;;
57401;SDS011;43226;51.110;6.998;2022-12-29T13:20:23;6.43;;;1.13;;
57401;SDS011;43226;51.110;6.998;2022-12-29T13:22:53;2.13;;;1.47;;
57401;SDS011;43226;51.110;6.998;2022-12-29T13:33:48;6.87;;;2.50;;
57401;SDS011;43226;51.110;6.998;2022-12-29T13:39:16;4.97;;;1.60;;
57401;SDS011;43226;51.110;6.998;2022-12-29T13:41:44;5.93;;;1.10;;
57401;SDS011;43226;51.110;6.998;2022-12-29T13:44:14;5.73;;;1.90;;
57401;SDS011;43226;51.110;6.998;2022-12-29T13:46:42;2.93;;;1.30;;
57401;SDS011;43226;51.110;6.998;2022-12-29T13:49:17;6.20;;;1.00;;
57401;SDS011;43226;51.110;6.998;2022-12-29T13:54:18;3.90;;;1.07;;
57401;SDS011;43226;51.110;6.998;2022-12-29T13:56:52;4.10;;;0.80;;
57401;SDS011;43226;51.110;6.998;2022-12-29T14:02:15;4.27;;;1.23;;
57401;SDS011;43226;51.110;6.998;2022-12-29T14:05:02;5.67;;;1.20;;
57401;SDS011;43226;51.110;6.998;2022-12-29T14:07:27;5.80;;;2.60;;
57401;SDS011;43226;51.110;6.998;2022-12-29T14:09:54;8.30;;;1.90;;
57401;SDS011;43226;51.110;6.998;2022-12-29T14:12:37;4.90;;;1.20;;
57401;SDS011;43226;51.110;6.998;2022-12-29T14:17:28;4.97;;;1.47;;
57401;SDS011;43226;51.110;6.998;2022-12-29T14:19:53;5.90;;;1.00;;
57401;SDS011;43226;51.110;6.998;2022-12-29T14:22:25;2.00;;;0.70;;
57401;SDS011;43226;51.110;6.998;2022-12-29T14:24:51;1.83;;;0.97;;
57401;SDS011;43226;51.110;6.998;2022-12-29T14:29:42;4.00;;;1.03;;
57401;SDS011;43226;51.110;6.998;2022-12-29T14:34:52;4.17;;;1.10;;
57401;SDS011;43226;51.110;6.998;2022-12-29T14:37:27;6.37;;;4.00;;
57401;SDS011;43226;51.110;6.998;2022-12-29T14:42:37;5.00;;;1.13;;
57401;SDS011;43226;51.110;6.998;2022-12-29T14:45:22;5.20;;;1.00;;
57401;SDS011;43226;51.110;6.998;2022-12-29T14:47:51;1.57;;;0.90;;
57401;SDS011;43226;51.110;6.998;2022-12-29T14:52:55;4.90;;;1.13;;
57401;SDS011;43226;51.110;6.998;2022-12-29T14:55:30;8.10;;;1.20;;
57401;SDS011;43226;51.110;6.998;2022-12-29T14:58:03;4.03;;;1.10;;
57401;SDS011;43226;51.110;6.998;2022-12-29T15:00:30;2.40;;;1.13;;
57401;SDS011;43226;51.110;6.998;2022-12-29T15:03:06;9.03;;;1.30;;
57401;SDS011;43226;51.110;6.998;2022-12-29T15:05:34;2.20;;;1.20;;
57401;SDS011;43226;51.110;6.998;2022-12-29T15:08:00;5.30;;;1.13;;
57401;SDS011;43226;51.110;6.998;2022-12-29T15:10:26;5.00;;;1.20;;
57401;SDS011;43226;51.110;6.998;2022-12-29T15:13:00;3.23;;;1.10;;
57401;SDS011;43226;51.110;6.998;2022-12-29T15:15:27;3.67;;;1.33;;
57401;SDS011;43226;51.110;6.998;2022-12-29T15:17:54;4.97;;;1.60;;
57401;SDS011;43226;51.110;6.998;2022-12-29T15:20:27;2.20;;;1.03;;
57401;SDS011;43226;51.110;6.998;2022-12-29T15:22:54;4.47;;;1.77;;
57401;SDS011;43226;51.110;6.998;2022-12-29T15:25:19;2.53;;;1.10;;
57401;SDS011;43226;51.110;6.998;2022-12-29T15:27:51;2.20;;;1.00;;
57401;SDS011;43226;51.110;6.998;2022-12-29T15:30:17;3.87;;;1.20;;
57401;SDS011;43226;51.110;6.998;2022-12-29T15:32:43;2.93;;;1.00;;
57401;SDS011;43226;51.110;6.998;2022-12-29T15:35:28;5.17;;;1.30;;
57401;SDS011;43226;51.110;6.998;2022-12-29T15:37:54;3.10;;;0.90;;
57401;SDS011;43226;51.110;6.998;2022-12-29T15:40:23;2.20;;;1.00;;
57401;SDS011;43226;51.110;6.998;2022-12-29T15:45:17;2.83;;;1.27;;
57401;SDS011;43226;51.110;6.998;2022-12-29T15:47:43;3.17;;;1.67;;
57401;SDS011;43226;51.110;6.998;2022-12-29T15:52:39;3.90;;;1.53;;
57401;SDS011;43226;51.110;6.998;2022-12-29T15:55:04;5.57;;;2.10;;
57401;SDS011;43226;51.110;6.998;2022-12-29T15:57:31;2.47;;;1.23;;
57401;SDS011;43226;51.110;6.998;2022-12-29T16:00:00;8.63;;;1.90;;
57401;SDS011;43226;51.110;6.998;2022-12-29T16:02:26;7.07;;;1.80;;
57401;SDS011;43226;51.110;6.998;2022-12-29T16:04:52;7.97;;;2.23;;
57401;SDS011;43226;51.110;6.998;2022-12-29T16:07:22;3.70;;;1.67;;
57401;SDS011;43226;51.110;6.998;2022-12-29T16:09:48;5.13;;;1.50;;
57401;SDS011;43226;51.110;6.998;2022-12-29T16:12:20;3.23;;;1.83;;
57401;SDS011;43226;51.110;6.998;2022-12-29T16:14:46;3.97;;;1.60;;
57401;SDS011;43226;51.110;6.998;2022-12-29T16:17:13;6.07;;;2.13;;
57401;SDS011;43226;51.110;6.998;2022-12-29T16:19:41;4.30;;;1.80;;
57401;SDS011;43226;51.110;6.998;2022-12-29T16:22:11;8.20;;;2.20;;
57401;SDS011;43226;51.110;6.998;2022-12-29T16:24:37;5.47;;;1.73;;
57401;SDS011;43226;51.110;6.998;2022-12-29T16:27:07;4.43;;;1.63;;
57401;SDS011;43226;51.110;6.998;2022-12-29T16:29:34;8.67;;;2.07;;
57401;SDS011;43226;51.110;6.998;2022-12-29T16:32:00;6.93;;;2.83;;
57401;SDS011;43226;51.110;6.998;2022-12-29T16:37:28;7.27;;;2.40;;
57401;SDS011;43226;51.110;6.998;2022-12-29T16:39:49;6.60;;;1.70;;
57401;SDS011;43226;51.110;6.998;2022-12-29T16:50:30;14.67;;;1.53;;
57401;SDS011;43226;51.110;6.998;2022-12-29T16:52:56;9.33;;;2.03;;
57401;SDS011;43226;51.110;6.998;2022-12-29T16:55:21;3.40;;;1.50;;